Shaker Heights, Ohio
Current Conditions -  °F | °C
As of 9:53 PM on Wednesday 22 Oct 2014 (Local Time) from KBKL Reporting Station
Overcast Overcast  
Wind Chill: 52°   Ceiling: 4300
Heat Index: 52°   Visibility: 10mi
Dew Point: 45°   Wind: 18mph
Humidity: 77%   Direction: 350°N
Pressure: 30.23"   Gusts: NA
Location:  41.47°N, 81.56°W
Report Text: KBKL 230153Z 35016KT 10SM OVC043 11/07 A3023 RMK AO2 SLP239 T01110072
Loading
Personal Weather Stations






























Interactive Weather Map
Tropical Storm Tracking
New forecast layout! Learn more

10-Day Weather Forecast

Advertisements
Track Severe Weather on mobile